Time;durP1;ratioP1;P1;durP2;ratioP2;P2;SDS_P1;SDS_P2;PMS_P1;PMS_P2;Temp;Humidity;BMP_temperature;BMP_pressure;BME280_temperature;BME280_humidity;BME280_pressure;Samples;Min_cycle;Max_cycle;Signal;HPM_P1;HPM_P2
2022/12/06 00:01:23;;;;;;;;;;;;;;;7.96;100.00;100601.59;5084534;28;19920;-81
2022/12/06 00:03:53;;;;;;;;;;;;;;;7.70;100.00;100605.81;5081036;28;20289;-79
2022/12/06 00:06:20;;;;;;;;;;;;;;;7.79;100.00;100605.78;5078972;28;19973;-78
2022/12/06 00:08:46;;;;;;;;;;;;;;;7.65;100.00;100602.78;5084287;28;19928;-81
2022/12/06 00:11:13;;;;;;;;;;;;;;;7.34;100.00;100598.63;5081361;28;19916;-79
2022/12/06 00:13:39;;;;;;;;;;;;;;;7.40;100.00;100591.00;5086611;28;20006;-81
2022/12/06 00:16:06;;;;;;;;;;;;;;;7.10;100.00;100596.41;5081248;28;19927;-82
2022/12/06 00:18:32;;;;;;;;;;;;;;;7.08;100.00;100593.09;5062422;28;20289;-81
2022/12/06 00:21:11;;;;;;;;;;;;;;;6.94;100.00;100585.59;5075543;28;19966;-82
2022/12/06 00:23:40;;;;;;;;;;;;;;;7.14;100.00;100593.38;5068549;28;19912;-84
2022/12/06 00:26:06;;;;;;;;;;;;;;;7.10;100.00;100591.13;5077519;28;20027;-80
2022/12/06 00:28:32;;;;;;;;;;;;;;;7.05;100.00;100586.31;5080846;28;19960;-81
2022/12/06 00:30:58;;;;;;;;;;;;;;;7.15;100.00;100588.94;5081275;28;19917;-81
2022/12/06 00:33:24;;;;;;;;;;;;;;;7.18;100.00;100584.22;5078288;28;19920;-80
2022/12/06 00:36:04;;;;;;;;;;;;;;;7.08;100.00;100582.56;5086739;28;19920;-81
2022/12/06 00:38:30;;;;;;;;;;;;;;;7.13;100.00;100585.59;5082714;28;19927;-80
2022/12/06 00:41:15;;;;;;;;;;;;;;;7.01;100.00;100589.34;5067330;28;19927;-82
2022/12/06 00:43:40;;;;;;;;;;;;;;;7.06;100.00;100579.22;5082924;28;19921;-79
2022/12/06 00:46:07;;;;;;;;;;;;;;;6.85;100.00;100581.16;5085697;28;19924;-81
2022/12/06 00:48:32;;;;;;;;;;;;;;;6.76;100.00;100573.06;5079350;28;20381;-83
2022/12/06 00:50:58;;;;;;;;;;;;;;;6.99;100.00;100578.13;5086833;28;19927;-77
2022/12/06 00:53:24;;;;;;;;;;;;;;;6.80;100.00;100573.66;5083692;28;19928;-78
2022/12/06 00:55:50;;;;;;;;;;;;;;;6.59;100.00;100565.88;5083321;28;19921;-82
2022/12/06 00:58:16;;;;;;;;;;;;;;;6.57;100.00;100573.06;5077748;28;19927;-81
2022/12/06 01:00:41;;;;;;;;;;;;;;;6.74;100.00;100575.03;5088067;28;19920;-81
2022/12/06 01:03:07;;;;;;;;;;;;;;;6.62;100.00;100586.66;5075768;28;19940;-80
2022/12/06 01:05:33;;;;;;;;;;;;;;;6.65;100.00;100580.28;5084740;28;20338;-81
2022/12/06 01:07:59;;;;;;;;;;;;;;;6.80;100.00;100588.59;5076821;28;19927;-83
2022/12/06 01:10:24;;;;;;;;;;;;;;;6.82;100.00;100594.59;5078198;28;19960;-80
2022/12/06 01:12:50;;;;;;;;;;;;;;;6.89;100.00;100593.09;5083683;28;19924;-81
2022/12/06 01:15:15;;;;;;;;;;;;;;;6.79;100.00;100592.22;5077446;28;20015;-80
2022/12/06 01:17:40;;;;;;;;;;;;;;;6.47;100.00;100592.41;5082997;28;19974;-80
2022/12/06 01:20:06;;;;;;;;;;;;;;;6.43;100.00;100591.84;5075353;28;19920;-78
2022/12/06 01:22:33;;;;;;;;;;;;;;;6.66;100.00;100581.97;5085060;28;20388;-80
2022/12/06 01:24:59;;;;;;;;;;;;;;;6.76;100.00;100583.63;5077432;28;19920;-82
2022/12/06 01:27:24;;;;;;;;;;;;;;;6.72;100.00;100587.50;5067060;28;19952;-79
2022/12/06 01:29:50;;;;;;;;;;;;;;;6.66;100.00;100577.50;5075272;28;22147;-80
2022/12/06 01:32:15;;;;;;;;;;;;;;;6.56;100.00;100583.72;5091626;28;19998;-80
2022/12/06 01:34:40;;;;;;;;;;;;;;;6.50;100.00;100587.72;5067299;28;19927;-83
2022/12/06 01:37:06;;;;;;;;;;;;;;;6.35;100.00;100586.44;5074843;28;19927;-83
2022/12/06 01:39:31;;;;;;;;;;;;;;;6.19;100.00;100586.94;5085035;28;19916;-81
2022/12/06 01:41:56;;;;;;;;;;;;;;;6.24;100.00;100590.00;5094453;28;20019;-83
2022/12/06 01:44:38;;;;;;;;;;;;;;;6.19;100.00;100588.72;5085418;28;20509;-81
2022/12/06 01:47:10;;;;;;;;;;;;;;;6.08;100.00;100591.44;5084917;28;19924;-81
2022/12/06 01:49:36;;;;;;;;;;;;;;;5.76;100.00;100590.69;5081934;28;19924;-80
2022/12/06 01:52:04;;;;;;;;;;;;;;;5.61;100.00;100588.38;5084263;28;19966;-82
2022/12/06 01:54:31;;;;;;;;;;;;;;;5.67;100.00;100587.88;5064450;28;19932;-80
2022/12/06 01:56:57;;;;;;;;;;;;;;;5.70;100.00;100590.25;5086393;28;19924;-82
2022/12/06 01:59:23;;;;;;;;;;;;;;;5.78;100.00;100589.59;5073679;28;19927;-79
2022/12/06 02:01:48;;;;;;;;;;;;;;;5.97;100.00;100584.47;5074340;28;20281;-80
2022/12/06 02:04:15;;;;;;;;;;;;;;;6.11;100.00;100581.50;5082216;28;19916;-81
2022/12/06 02:06:40;;;;;;;;;;;;;;;6.12;100.00;100579.69;5084356;28;19920;-82
2022/12/06 02:09:07;;;;;;;;;;;;;;;5.99;100.00;100572.03;5082848;28;19999;-83
2022/12/06 02:11:33;;;;;;;;;;;;;;;6.01;100.00;100587.66;5083592;28;19920;-83
2022/12/06 02:13:59;;;;;;;;;;;;;;;6.07;100.00;100580.09;5086197;28;20300;-82
2022/12/06 02:16:30;;;;;;;;;;;;;;;5.99;100.00;100576.47;5083309;28;20473;-81
2022/12/06 02:19:13;;;;;;;;;;;;;;;5.93;100.00;100577.00;5085018;28;19924;-79
2022/12/06 02:21:56;;;;;;;;;;;;;;;5.81;100.00;100578.81;5082528;28;20338;-80
2022/12/06 02:24:34;;;;;;;;;;;;;;;5.66;100.00;100580.13;5076399;28;19927;-83
2022/12/06 02:27:18;;;;;;;;;;;;;;;5.82;100.00;100580.50;5081669;28;19927;-83
2022/12/06 02:29:57;;;;;;;;;;;;;;;5.54;100.00;100576.72;5083032;28;19995;-80
2022/12/06 02:32:30;;;;;;;;;;;;;;;5.52;100.00;100576.03;5083312;28;20014;-81
2022/12/06 02:35:08;;;;;;;;;;;;;;;5.35;100.00;100576.59;5084406;28;19951;-83
2022/12/06 02:37:46;;;;;;;;;;;;;;;5.61;100.00;100574.41;5083237;28;19959;-83
2022/12/06 02:40:28;;;;;;;;;;;;;;;5.58;100.00;100567.63;5079516;28;19928;-81
2022/12/06 02:42:57;;;;;;;;;;;;;;;5.57;100.00;100570.38;5066494;28;19973;-82
2022/12/06 02:45:31;;;;;;;;;;;;;;;5.39;100.00;100564.88;5084231;28;19964;-82
2022/12/06 02:48:00;;;;;;;;;;;;;;;5.55;100.00;100556.53;5084876;28;19925;-82
2022/12/06 02:50:30;;;;;;;;;;;;;;;5.62;100.00;100563.78;5082168;28;19920;-80
2022/12/06 02:52:57;;;;;;;;;;;;;;;5.62;100.00;100557.69;5077002;28;19921;-78
2022/12/06 02:55:23;;;;;;;;;;;;;;;5.73;100.00;100560.25;5082603;28;19924;-77
2022/12/06 02:57:50;;;;;;;;;;;;;;;5.63;100.00;100554.91;5079994;28;20237;-79
2022/12/06 03:00:34;;;;;;;;;;;;;;;5.76;100.00;100553.88;5084985;28;19931;-82
2022/12/06 03:03:18;;;;;;;;;;;;;;;5.85;100.00;100545.19;5080607;28;19920;-81
2022/12/06 03:05:56;;;;;;;;;;;;;;;5.63;100.00;100547.00;5082782;28;19920;-82
2022/12/06 03:08:32;;;;;;;;;;;;;;;5.65;100.00;100541.66;5088688;28;19920;-83
2022/12/06 03:11:01;;;;;;;;;;;;;;;5.76;100.00;100546.84;5100420;28;20005;-81
2022/12/06 03:13:36;;;;;;;;;;;;;;;5.84;100.00;100541.72;5094812;28;20017;-82
2022/12/06 03:16:13;;;;;;;;;;;;;;;6.02;100.00;100539.38;5075839;28;19924;-81
2022/12/06 03:18:39;;;;;;;;;;;;;;;6.08;100.00;100538.81;5094139;28;19920;-80
2022/12/06 03:21:09;;;;;;;;;;;;;;;5.98;100.00;100545.84;5093124;28;20437;-81
2022/12/06 03:23:39;;;;;;;;;;;;;;;6.01;100.00;100537.69;5093098;28;19920;-80
2022/12/06 03:26:06;;;;;;;;;;;;;;;6.05;100.00;100539.09;5092681;28;19927;-80
2022/12/06 03:28:33;;;;;;;;;;;;;;;6.15;100.00;100539.97;5075079;28;19920;-84
2022/12/06 03:31:01;;;;;;;;;;;;;;;5.87;100.00;100530.97;5074789;28;20377;-78
2022/12/06 03:33:28;;;;;;;;;;;;;;;5.64;100.00;100546.06;5092566;28;19928;-80
2022/12/06 03:35:55;;;;;;;;;;;;;;;5.48;100.00;100539.59;5074864;28;19948;-78
2022/12/06 03:38:25;;;;;;;;;;;;;;;5.53;100.00;100535.66;5093336;28;19959;-81
2022/12/06 03:40:51;;;;;;;;;;;;;;;5.51;100.00;100540.19;5096545;28;20330;-82
2022/12/06 03:43:17;;;;;;;;;;;;;;;5.41;100.00;100534.03;5096543;28;19965;-84
2022/12/06 03:45:55;;;;;;;;;;;;;;;5.58;100.00;100536.06;5096414;28;19928;-80
2022/12/06 03:48:25;;;;;;;;;;;;;;;5.39;100.00;100538.59;5096423;28;20384;-81
2022/12/06 03:51:10;;;;;;;;;;;;;;;5.17;100.00;100530.84;5096549;28;19959;-82
2022/12/06 03:53:44;;;;;;;;;;;;;;;5.29;100.00;100524.56;5095986;28;19920;-82
2022/12/06 03:56:10;;;;;;;;;;;;;;;5.21;100.00;100526.97;5096609;28;20226;-81
2022/12/06 03:58:35;;;;;;;;;;;;;;;5.36;100.00;100530.97;5096478;28;19946;-80
2022/12/06 04:01:03;;;;;;;;;;;;;;;5.32;100.00;100529.56;5078079;28;20385;-80
2022/12/06 04:03:29;;;;;;;;;;;;;;;5.14;100.00;100528.44;5096469;28;19927;-80
2022/12/06 04:05:54;;;;;;;;;;;;;;;5.02;100.00;100522.41;5097911;28;19920;-81
2022/12/06 04:08:20;;;;;;;;;;;;;;;5.03;100.00;100528.50;5096151;28;19920;-82
2022/12/06 04:10:46;;;;;;;;;;;;;;;4.86;100.00;100529.06;5095977;28;20416;-81
2022/12/06 04:13:11;;;;;;;;;;;;;;;4.90;100.00;100527.84;5078036;28;20017;-83
2022/12/06 04:15:37;;;;;;;;;;;;;;;5.07;100.00;100527.31;5077398;28;19923;-85
2022/12/06 04:18:17;;;;;;;;;;;;;;;5.09;100.00;100522.75;5095700;28;20277;-82
2022/12/06 04:23:48;;;;;;;;;;;;;;;4.95;100.00;100526.50;5033572;28;19921;-82
2022/12/06 04:26:15;;;;;;;;;;;;;;;4.77;100.00;100527.19;5082936;28;19920;-81
2022/12/06 04:39:39;;;;;;;;;;;;;;;5.07;100.00;100529.94;5075217;28;19921;-82
2022/12/06 04:44:48;;;;;;;;;;;;;;;4.64;100.00;100519.47;5075051;28;19920;-83
2022/12/06 04:47:13;;;;;;;;;;;;;;;4.29;100.00;100524.09;5077770;28;20436;-82
2022/12/06 04:49:40;;;;;;;;;;;;;;;4.21;100.00;100522.06;5087367;28;19927;-85
2022/12/06 04:52:06;;;;;;;;;;;;;;;4.09;100.00;100525.66;5074733;28;19921;-79
2022/12/06 04:54:32;;;;;;;;;;;;;;;4.10;100.00;100519.47;5075033;28;19985;-82
2022/12/06 04:56:58;;;;;;;;;;;;;;;4.42;100.00;100516.91;5074879;28;20266;-82
2022/12/06 04:59:24;;;;;;;;;;;;;;;4.23;100.00;100521.97;5075114;28;19920;-83
2022/12/06 05:01:49;;;;;;;;;;;;;;;4.29;100.00;100519.69;5074938;28;19921;-83
2022/12/06 05:04:15;;;;;;;;;;;;;;;4.61;100.00;100517.91;5075131;28;19966;-81
2022/12/06 05:06:40;;;;;;;;;;;;;;;4.60;100.00;100518.91;5074969;28;20011;-83
2022/12/06 05:09:05;;;;;;;;;;;;;;;4.60;100.00;100528.56;5074786;28;20007;-81
2022/12/06 05:11:31;;;;;;;;;;;;;;;4.75;100.00;100523.84;5075095;28;20258;-79
2022/12/06 05:13:57;;;;;;;;;;;;;;;4.84;100.00;100521.28;5075043;28;19920;-80
2022/12/06 05:16:23;;;;;;;;;;;;;;;4.90;100.00;100525.22;5057159;28;19924;-81
2022/12/06 05:18:48;;;;;;;;;;;;;;;4.87;100.00;100530.72;5074844;28;19944;-82
2022/12/06 05:21:15;;;;;;;;;;;;;;;4.86;100.00;100522.03;5074915;28;20265;-79
2022/12/06 05:23:40;;;;;;;;;;;;;;;4.87;100.00;100528.91;5079469;28;19963;-82
2022/12/06 05:26:09;;;;;;;;;;;;;;;4.79;100.00;100518.22;5074297;28;20023;-80
2022/12/06 05:28:34;;;;;;;;;;;;;;;4.85;100.00;100527.38;5074420;28;20296;-80
2022/12/06 05:31:00;;;;;;;;;;;;;;;4.67;100.00;100532.34;5074188;28;20015;-81
2022/12/06 05:33:25;;;;;;;;;;;;;;;4.34;100.00;100530.63;5074265;28;20266;-80
2022/12/06 05:35:50;;;;;;;;;;;;;;;4.04;100.00;100536.50;5056408;28;20306;-83
2022/12/06 05:38:16;;;;;;;;;;;;;;;3.90;100.00;100535.94;5074341;28;19920;-79
2022/12/06 05:40:42;;;;;;;;;;;;;;;3.76;100.00;100534.38;5074338;28;19974;-82
2022/12/06 05:43:07;;;;;;;;;;;;;;;3.70;100.00;100526.16;5074959;28;19966;-78
2022/12/06 05:45:33;;;;;;;;;;;;;;;3.74;100.00;100524.97;5075200;28;19916;-80
2022/12/06 05:47:58;;;;;;;;;;;;;;;3.99;100.00;100527.34;5076459;28;19974;-79
2022/12/06 05:50:24;;;;;;;;;;;;;;;3.73;100.00;100531.16;5075260;28;19974;-82
2022/12/06 05:52:53;;;;;;;;;;;;;;;3.51;100.00;100534.59;5056546;28;20380;-81
2022/12/06 05:55:18;;;;;;;;;;;;;;;3.79;100.00;100535.91;5072578;28;20031;-82
2022/12/06 05:57:44;;;;;;;;;;;;;;;3.58;100.00;100530.53;5075216;28;19960;-80
2022/12/06 06:00:10;;;;;;;;;;;;;;;3.52;100.00;100526.59;5056291;28;19920;-81
2022/12/06 06:02:35;;;;;;;;;;;;;;;3.63;100.00;100529.25;5073798;28;19920;-84
2022/12/06 06:05:00;;;;;;;;;;;;;;;3.50;100.00;100539.00;5074671;28;19927;-83
2022/12/06 06:07:26;;;;;;;;;;;;;;;3.43;100.00;100534.34;5074203;28;20344;-82
2022/12/06 06:09:51;;;;;;;;;;;;;;;3.56;100.00;100538.53;5074477;28;19930;-77
2022/12/06 06:12:17;;;;;;;;;;;;;;;3.62;100.00;100539.84;5057007;28;19935;-78
2022/12/06 06:14:42;;;;;;;;;;;;;;;3.65;100.00;100537.81;5074780;28;19991;-90
2022/12/06 06:17:07;;;;;;;;;;;;;;;3.51;100.00;100538.03;5073786;28;19967;-80
2022/12/06 06:19:33;;;;;;;;;;;;;;;3.38;100.00;100534.66;5074928;28;19946;-89
2022/12/06 06:21:58;;;;;;;;;;;;;;;3.27;100.00;100542.53;5076643;28;19920;-84
2022/12/06 06:24:23;;;;;;;;;;;;;;;3.30;100.00;100542.28;5084051;28;19926;-78
2022/12/06 06:26:49;;;;;;;;;;;;;;;3.26;100.00;100547.84;5072586;28;19920;-79
2022/12/06 06:29:14;;;;;;;;;;;;;;;3.28;100.00;100548.59;5085378;28;19966;-86
2022/12/06 06:31:39;;;;;;;;;;;;;;;3.13;100.00;100547.94;5082550;28;20029;-80
2022/12/06 06:34:05;;;;;;;;;;;;;;;3.13;100.00;100553.19;5077443;28;19963;-84
2022/12/06 06:36:30;;;;;;;;;;;;;;;3.07;100.00;100545.78;5076060;28;19935;-81
2022/12/06 06:38:57;;;;;;;;;;;;;;;2.84;100.00;100544.03;5077504;28;19932;-84
2022/12/06 06:41:23;;;;;;;;;;;;;;;2.77;100.00;100537.56;5074859;28;19921;-79
2022/12/06 06:43:48;;;;;;;;;;;;;;;2.83;100.00;100543.19;5073844;28;20384;-81
2022/12/06 06:46:14;;;;;;;;;;;;;;;3.07;100.00;100553.63;5076411;28;19920;-78
2022/12/06 06:48:39;;;;;;;;;;;;;;;3.01;100.00;100557.56;5078492;28;20433;-82
2022/12/06 06:51:06;;;;;;;;;;;;;;;3.09;100.00;100549.13;5075299;28;19927;-81
2022/12/06 06:53:31;;;;;;;;;;;;;;;3.20;100.00;100562.25;5074197;28;19927;-87
2022/12/06 06:55:57;;;;;;;;;;;;;;;3.38;100.00;100560.06;5072899;28;20321;-81
2022/12/06 06:58:22;;;;;;;;;;;;;;;3.46;100.00;100558.50;5072252;28;19924;-79
2022/12/06 07:00:55;;;;;;;;;;;;;;;3.86;100.00;100552.84;5072575;28;19920;-86
2022/12/06 07:03:21;;;;;;;;;;;;;;;4.00;100.00;100558.69;5072852;28;19928;-84
2022/12/06 07:05:50;;;;;;;;;;;;;;;4.28;100.00;100561.75;5072895;28;19962;-79
2022/12/06 07:08:15;;;;;;;;;;;;;;;4.84;100.00;100565.13;5073623;28;19920;-84
2022/12/06 07:10:42;;;;;;;;;;;;;;;4.55;100.00;100562.19;5073533;28;20403;-85
2022/12/06 07:13:07;;;;;;;;;;;;;;;4.55;100.00;100567.44;5073644;28;19920;-81
2022/12/06 07:15:34;;;;;;;;;;;;;;;4.80;100.00;100579.44;5076477;28;19927;-79
2022/12/06 07:17:59;;;;;;;;;;;;;;;5.73;100.00;100576.81;5076657;28;19920;-78
2022/12/06 07:20:24;;;;;;;;;;;;;;;5.89;100.00;100572.94;5076927;28;20404;-81
2022/12/06 07:22:50;;;;;;;;;;;;;;;5.84;100.00;100578.56;5058838;28;19924;-81
2022/12/06 07:25:15;;;;;;;;;;;;;;;6.48;100.00;100583.56;5076924;28;19927;-77
2022/12/06 07:27:41;;;;;;;;;;;;;;;6.58;100.00;100585.25;5076689;28;19920;-81
2022/12/06 07:30:07;;;;;;;;;;;;;;;8.01;100.00;100587.97;5058576;28;19952;-78
2022/12/06 07:32:33;;;;;;;;;;;;;;;8.40;100.00;100592.16;5077439;28;20003;-82
2022/12/06 07:34:59;;;;;;;;;;;;;;;9.18;100.00;100595.97;5076919;28;19931;-81
2022/12/06 07:37:24;;;;;;;;;;;;;;;9.21;100.00;100590.38;5076550;28;20003;-80
2022/12/06 07:39:49;;;;;;;;;;;;;;;9.42;100.00;100593.53;5076515;28;20400;-78
2022/12/06 07:45:02;;;;;;;;;;;;;;;8.97;100.00;100592.78;5076475;28;19966;-80
2022/12/06 07:47:40;;;;;;;;;;;;;;;7.88;100.00;100605.94;5078009;28;20002;-82
2022/12/06 07:50:07;;;;;;;;;;;;;;;7.17;100.00;100592.25;5076466;28;19920;-85
2022/12/06 07:52:34;;;;;;;;;;;;;;;7.03;100.00;100597.94;5076706;28;20408;-83
2022/12/06 07:54:59;;;;;;;;;;;;;;;6.57;100.00;100596.75;5076233;28;20011;-85
2022/12/06 07:57:25;;;;;;;;;;;;;;;6.17;100.00;100590.66;5076723;28;20408;-81
2022/12/06 07:59:50;;;;;;;;;;;;;;;6.07;100.00;100590.59;5077228;28;19974;-83
2022/12/06 08:02:17;;;;;;;;;;;;;;;5.64;100.00;100587.28;5078132;28;20025;-79
2022/12/06 08:04:42;;;;;;;;;;;;;;;5.49;100.00;100585.97;5066210;28;19923;-80
2022/12/06 08:07:08;;;;;;;;;;;;;;;5.58;100.00;100583.38;5084271;28;19920;-86
2022/12/06 08:09:33;;;;;;;;;;;;;;;5.97;100.00;100595.00;5076403;28;20300;-88
2022/12/06 08:11:58;;;;;;;;;;;;;;;5.74;100.00;100599.53;5077154;28;19923;-79
2022/12/06 08:14:24;;;;;;;;;;;;;;;5.66;100.00;100591.47;5076896;28;19920;-89
2022/12/06 08:16:50;;;;;;;;;;;;;;;5.74;100.00;100596.91;5076824;28;19978;-89
2022/12/06 08:19:16;;;;;;;;;;;;;;;5.41;100.00;100597.09;5076847;28;19975;-85
2022/12/06 08:21:41;;;;;;;;;;;;;;;5.77;100.00;100592.38;5059467;28;19942;-80
2022/12/06 08:24:07;;;;;;;;;;;;;;;5.67;100.00;100598.38;5078373;28;19919;-85
2022/12/06 08:26:32;;;;;;;;;;;;;;;5.59;100.00;100592.94;5076397;28;19964;-83
2022/12/06 08:29:01;;;;;;;;;;;;;;;5.63;100.00;100601.41;5076650;28;19927;-81
2022/12/06 08:31:27;;;;;;;;;;;;;;;5.80;100.00;100598.19;5077038;28;19931;-81
2022/12/06 08:33:53;;;;;;;;;;;;;;;6.15;100.00;100593.44;5077960;28;20357;-84
2022/12/06 08:36:19;;;;;;;;;;;;;;;6.34;100.00;100590.03;5076966;28;19932;-82
2022/12/06 08:38:45;;;;;;;;;;;;;;;6.07;100.00;100597.66;5076875;28;19923;-82
2022/12/06 08:43:58;;;;;;;;;;;;;;;6.15;100.00;100595.22;5076745;28;19927;-83
2022/12/06 08:46:24;;;;;;;;;;;;;;;6.23;100.00;100592.78;5078739;28;19947;-83
2022/12/06 08:48:50;;;;;;;;;;;;;;;6.71;100.00;100585.84;5078336;28;20370;-86
2022/12/06 08:51:15;;;;;;;;;;;;;;;6.71;100.00;100593.75;5076434;28;20442;-82
2022/12/06 08:53:40;;;;;;;;;;;;;;;6.42;100.00;100600.72;5076526;28;19921;-86
2022/12/06 08:56:06;;;;;;;;;;;;;;;6.26;100.00;100595.13;5075793;28;20437;-82
2022/12/06 08:58:31;;;;;;;;;;;;;;;6.17;100.00;100590.66;5076924;28;20011;-84
2022/12/06 09:00:57;;;;;;;;;;;;;;;6.16;100.00;100602.16;5076516;28;19916;-88
2022/12/06 09:03:22;;;;;;;;;;;;;;;6.24;100.00;100597.06;5076595;28;20062;-81
2022/12/06 09:05:47;;;;;;;;;;;;;;;6.26;100.00;100595.13;5076415;28;19920;-86
2022/12/06 09:08:13;;;;;;;;;;;;;;;6.25;100.00;100593.47;5076901;28;19942;-84
2022/12/06 09:10:38;;;;;;;;;;;;;;;6.39;100.00;100587.00;5076864;28;19939;-79
2022/12/06 09:13:04;;;;;;;;;;;;;;;6.59;100.00;100591.38;5078600;28;19924;-85
2022/12/06 09:15:29;;;;;;;;;;;;;;;7.04;100.00;100591.69;5075884;28;19990;-83
2022/12/06 09:17:55;;;;;;;;;;;;;;;7.16;100.00;100595.84;5076910;28;19924;-84
2022/12/06 09:20:20;;;;;;;;;;;;;;;7.07;100.00;100586.16;5076815;28;20374;-86
2022/12/06 09:22:45;;;;;;;;;;;;;;;7.06;100.00;100592.41;5077279;28;19934;-83
2022/12/06 09:25:11;;;;;;;;;;;;;;;7.10;100.00;100599.03;5075618;28;20007;-79
2022/12/06 09:27:37;;;;;;;;;;;;;;;6.95;100.00;100603.91;5078194;28;19920;-81
2022/12/06 09:30:04;;;;;;;;;;;;;;;6.88;100.00;100601.94;5075921;28;19925;-88
2022/12/06 09:32:29;;;;;;;;;;;;;;;6.86;100.00;100594.16;5075721;28;19921;-83
2022/12/06 09:34:54;;;;;;;;;;;;;;;6.89;100.00;100596.56;5075827;28;20292;-86
2022/12/06 09:37:20;;;;;;;;;;;;;;;6.83;100.00;100589.16;5078973;28;19917;-84
2022/12/06 09:39:50;;;;;;;;;;;;;;;6.86;100.00;100593.34;5060878;28;19987;-86
2022/12/06 09:42:19;;;;;;;;;;;;;;;6.80;100.00;100594.72;5084254;28;19920;-78
2022/12/06 09:44:47;;;;;;;;;;;;;;;6.88;100.00;100596.69;5072812;28;19921;-80
2022/12/06 09:47:15;;;;;;;;;;;;;;;6.80;100.00;100593.88;5080448;28;19978;-84
2022/12/06 09:49:58;;;;;;;;;;;;;;;6.87;100.00;100584.47;5075386;28;19921;-83
2022/12/06 09:52:24;;;;;;;;;;;;;;;6.90;100.00;100585.03;5057351;28;19947;-83
2022/12/06 09:54:58;;;;;;;;;;;;;;;7.03;100.00;100585.59;5074834;28;19921;-88
2022/12/06 09:57:27;;;;;;;;;;;;;;;7.16;100.00;100590.59;5074664;28;20027;-85
2022/12/06 09:59:55;;;;;;;;;;;;;;;7.14;100.00;100588.09;5057021;28;20076;-86
2022/12/06 10:02:35;;;;;;;;;;;;;;;7.18;100.00;100586.03;5074494;28;19927;-85
2022/12/06 10:05:20;;;;;;;;;;;;;;;7.26;100.00;100583.50;5075048;28;19924;-82
2022/12/06 10:07:57;;;;;;;;;;;;;;;7.14;100.00;100576.72;5075023;28;19929;-86
2022/12/06 10:10:33;;;;;;;;;;;;;;;7.25;100.00;100584.50;5076672;28;20457;-79
2022/12/06 10:13:07;;;;;;;;;;;;;;;7.42;100.00;100580.31;5079212;28;19928;-82
2022/12/06 10:15:58;;;;;;;;;;;;;;;7.24;100.00;100580.19;5076558;28;19966;-82
2022/12/06 10:18:33;;;;;;;;;;;;;;;7.19;100.00;100580.59;5056737;28;19927;-82
2022/12/06 10:21:08;;;;;;;;;;;;;;;7.26;100.00;100580.88;5074425;28;19965;-88
2022/12/06 10:23:36;;;;;;;;;;;;;;;7.17;100.00;100573.81;5075755;28;19966;-81
2022/12/06 10:26:14;;;;;;;;;;;;;;;7.28;100.00;100573.69;5075483;28;19970;-80
2022/12/06 10:28:44;;;;;;;;;;;;;;;7.29;100.00;100576.16;5078660;28;19943;-79
2022/12/06 10:31:21;;;;;;;;;;;;;;;7.45;100.00;100578.25;5081201;28;19920;-82
2022/12/06 10:33:54;;;;;;;;;;;;;;;7.36;100.00;100576.44;5080688;28;19928;-78
2022/12/06 10:36:35;;;;;;;;;;;;;;;7.51;100.00;100569.75;5078855;28;20073;-81
2022/12/06 10:39:04;;;;;;;;;;;;;;;7.42;100.00;100567.97;5074959;28;19971;-76
2022/12/06 10:41:33;;;;;;;;;;;;;;;7.38;100.00;100569.22;5055886;28;20325;-85
2022/12/06 10:44:14;;;;;;;;;;;;;;;7.38;100.00;100563.13;5055867;28;19924;-82
2022/12/06 10:49:36;;;;;;;;;;;;;;;7.21;100.00;100562.03;5073187;28;19974;-81
2022/12/06 10:52:01;;;;;;;;;;;;;;;7.23;100.00;100549.53;5073930;28;19917;-82
2022/12/06 10:54:42;;;;;;;;;;;;;;;7.08;100.00;100549.13;5073341;28;20284;-81
2022/12/06 10:57:15;;;;;;;;;;;;;;;7.13;100.00;100548.69;5074038;28;19916;-84
2022/12/06 10:59:53;;;;;;;;;;;;;;;7.06;100.00;100539.72;5074146;28;20247;-79
2022/12/06 11:02:28;;;;;;;;;;;;;;;7.10;100.00;100538.44;5074655;28;19928;-81
2022/12/06 11:04:57;;;;;;;;;;;;;;;7.31;100.00;100541.75;5073621;28;19987;-79
2022/12/06 11:07:30;;;;;;;;;;;;;;;7.46;100.00;100540.34;5074683;28;19920;-82
2022/12/06 11:09:56;;;;;;;;;;;;;;;7.49;100.00;100544.53;5074999;28;19921;-84
2022/12/06 11:12:21;;;;;;;;;;;;;;;7.44;100.00;100530.91;5073725;28;20312;-86
2022/12/06 11:14:50;;;;;;;;;;;;;;;7.40;100.00;100540.91;5074122;28;19960;-84
2022/12/06 11:17:36;;;;;;;;;;;;;;;7.35;100.00;100543.16;5075782;28;19931;-84
2022/12/06 11:20:14;;;;;;;;;;;;;;;7.55;100.00;100539.50;5073954;28;20011;-84
2022/12/06 11:22:52;;;;;;;;;;;;;;;7.40;100.00;100534.78;5088149;28;19923;-79
2022/12/06 11:25:20;;;;;;;;;;;;;;;7.43;100.00;100518.69;5098925;28;19926;-79
2022/12/06 11:27:49;;;;;;;;;;;;;;;7.53;100.00;100538.81;5101969;28;19931;-83
2022/12/06 11:30:16;;;;;;;;;;;;;;;7.33;100.00;100529.25;5107901;28;19920;-81
2022/12/06 11:32:42;;;;;;;;;;;;;;;7.37;100.00;100528.00;5100021;28;19916;-82
2022/12/06 11:35:18;;;;;;;;;;;;;;;7.32;100.00;100522.34;5095554;28;20407;-83
2022/12/06 11:37:44;;;;;;;;;;;;;;;7.27;100.00;100519.28;5077197;28;20289;-89
2022/12/06 11:40:10;;;;;;;;;;;;;;;7.24;100.00;100511.66;5078502;28;19920;-83
2022/12/06 11:42:35;;;;;;;;;;;;;;;7.18;100.00;100520.13;5093717;28;19927;-82
2022/12/06 11:45:06;;;;;;;;;;;;;;;7.28;100.00;100516.53;5094471;28;19926;-86
2022/12/06 11:47:31;;;;;;;;;;;;;;;7.39;100.00;100510.22;5097375;28;19995;-81
2022/12/06 11:49:57;;;;;;;;;;;;;;;7.33;100.00;100513.44;5094927;28;19952;-86
2022/12/06 11:52:22;;;;;;;;;;;;;;;7.83;100.00;100506.09;5094176;28;20399;-81
2022/12/06 11:55:02;;;;;;;;;;;;;;;7.97;100.00;100507.41;5094165;28;19920;-88
2022/12/06 11:57:35;;;;;;;;;;;;;;;7.58;100.00;100502.28;5094554;28;20308;-79
2022/12/06 12:00:07;;;;;;;;;;;;;;;7.41;100.00;100504.84;5094425;28;19926;-81
2022/12/06 12:02:38;;;;;;;;;;;;;;;7.69;100.00;100498.63;5096739;28;19920;-78
2022/12/06 12:05:09;;;;;;;;;;;;;;;7.46;100.00;100492.88;5097294;28;19920;-81
2022/12/06 12:07:37;;;;;;;;;;;;;;;7.31;100.00;100493.47;5097973;28;19926;-84
2022/12/06 12:10:06;;;;;;;;;;;;;;;7.22;100.00;100495.97;5079072;28;19920;-77
2022/12/06 12:15:32;;;;;;;;;;;;;;;7.41;100.00;100489.84;5091831;28;19928;-81
2022/12/06 12:17:59;;;;;;;;;;;;;;;7.57;100.00;100491.88;5059727;28;19920;-82
2022/12/06 12:20:26;;;;;;;;;;;;;;;7.65;100.00;100487.56;5079694;28;19956;-90
2022/12/06 12:23:04;;;;;;;;;;;;;;;7.28;100.00;100484.06;5061366;28;19946;-81
2022/12/06 12:25:35;;;;;;;;;;;;;;;7.20;100.00;100476.00;5079675;28;19925;-80
2022/12/06 12:28:01;;;;;;;;;;;;;;;7.13;100.00;100478.38;5085860;28;19982;-79
2022/12/06 12:30:31;;;;;;;;;;;;;;;7.30;100.00;100468.91;5092093;28;19927;-79
2022/12/06 12:33:06;;;;;;;;;;;;;;;7.48;100.00;100469.00;5083250;28;19920;-79
2022/12/06 12:35:33;;;;;;;;;;;;;;;7.47;100.00;100468.19;5076213;28;20292;-77
2022/12/06 12:38:01;;;;;;;;;;;;;;;7.30;100.00;100461.00;5076069;28;19970;-79
2022/12/06 12:40:29;;;;;;;;;;;;;;;7.16;100.00;100454.38;5076617;28;19921;-81
2022/12/06 12:43:06;;;;;;;;;;;;;;;7.28;100.00;100452.41;5077373;28;19954;-83
2022/12/06 12:45:32;;;;;;;;;;;;;;;7.16;100.00;100453.53;5076707;28;19943;-81
2022/12/06 12:47:58;;;;;;;;;;;;;;;7.10;100.00;100448.84;5076633;28;20365;-82
2022/12/06 12:50:28;;;;;;;;;;;;;;;7.08;100.00;100451.63;5075672;28;19959;-85
2022/12/06 12:52:53;;;;;;;;;;;;;;;7.00;100.00;100443.59;5076310;28;19920;-83
2022/12/06 12:55:22;;;;;;;;;;;;;;;7.05;100.00;100451.09;5075625;28;19916;-89
2022/12/06 12:57:55;;;;;;;;;;;;;;;6.97;100.00;100448.31;5077500;28;20003;-81
2022/12/06 13:00:23;;;;;;;;;;;;;;;7.09;100.00;100436.66;5063577;28;19943;-82
2022/12/06 13:02:52;;;;;;;;;;;;;;;6.94;100.00;100438.06;5084965;28;20399;-82
2022/12/06 13:05:37;;;;;;;;;;;;;;;7.20;100.00;100433.84;5076180;28;20133;-82
2022/12/06 13:08:19;;;;;;;;;;;;;;;7.10;100.00;100425.97;5073966;28;20335;-82
2022/12/06 13:10:46;;;;;;;;;;;;;;;7.40;100.00;100430.16;5074916;28;19920;-82